Aeroporto :
LOGIN :

Iscrizione | Disclaimer

   EN    FR    IT 

 










Sommario :    VFR   VFR Marginale   IFR   IFR Intensivo   IFR Molto Intensivo
Visibilità : 
Base nubi : 
>= 8 km
>= 3000ft
5 / 8 km
1000 / 3000 ft
1500m / 5 km
500 / 1000 ft
800 / 1500m
200 / 500 ft
< 800m
< 200 ft
Simboli :   Temporali  Nebbia  Neve Forte  Precipitazioni Forti  Vento > 20 kt
SIGMETs :   Varie  Temporali  Ghiacco  Turbolenza  Onda orograficha  Ceneri Vulcaniche






- Altitudine del aeroporto : 56 ft


LPOV - Ovar Air Base

ULTIMO METAR :
  • 190700Z 18003KT 6000 FEW022 SCT030 17/17 Q1013

METARs OBSOLETI :
  • 190600Z 16003KT 6000 FEW022 BKN030 18/17 Q1012

TAF AMD TAF LPOV
Valido dal 19 a 06 ore il 20 a 06 ore UTC


190603Z 1906/2006 18012KT 9999 FEW020 BKN030
TEMPO 1906/1918 4000 SHRA BKN012 FEW020CB
TEMPO 1910/1918 20015G25KT
BECMG 1918/1920 SCT008 BKN015
TEMPO 1918/2006 2000 -RADZ BKN005 BKN010
BECMG 1922/1924 22008KT



MetMap, La meteo Aeronautica in un colpo d'occhio ! - Copyright ORBIFLY Dicembre 2007 - Disclaimer

ORBIFLY MET'MAP TEAM :

Programmazione e sviluppo : Alexandra Zaïnal
Concezione : Baudouin d'Aumeries
Aiuto per la programmazione : Marc-Olivier Méhu
Supporto tecnico e logistico : Manuel Goepfert
Aiuto per la traduzione : Arnaldo La Scala

Contatto : metmap@orbifly.com




FONTI E CREDITI :

   NOAA